Elrosa, Minnesota
Current Conditions -  °F | °C
As of 8:12 AM on Sunday 25 Jan 2015 (Local Time) from KD39 Reporting Station
Overcast Overcast  
Wind Chill: 13°   Ceiling: 1800
Heat Index: 23°   Visibility: 10mi
Dew Point: 19°   Wind: 8mph
Humidity: 84%   Direction: 90°E
Pressure: 29.94"   Gusts: NA
Location:  45.56°N, 94.95°W
Report Text: KD39 251412Z AUTO 09007KT 10SM OVC018 M05/M07 A2994 RMK AO2 T10521075
Loading
Personal Weather Stations






























Interactive Weather Map New forecast layout! Learn more

10-Day Weather Forecast

Advertisements
Track Severe Weather on mobile